Overview Statistics Trail Chart Weather Telemetry Raw packets
 

This is the latest recevied weather packets stored in our database for station/object KG4QXF. If no packets are shown the sender has not sent any weather packets the latest 10 day(s).

<< 63 64 65 66 67 68 69 >>
Time Temp. Humidity Pressure Rain* Wind** Luminosity Snow
1777235546 22.22° C 82% 1013.4 hPa 0 mm - - -
1777235242 22.22° C 82% 1013.4 hPa 0 mm - - -
1777234938 22.78° C 80% 1013.3 hPa 0 mm - - -
1777234634 23.33° C 77% 1013.4 hPa 0 mm - - -
1777234329 23.33° C 75% 1013.3 hPa 0 mm - - -
1777234025 23.33° C 76% 1013.4 hPa 0 mm - - -
1777233722 23.89° C 76% 1013.4 hPa 0 mm - - -
1777233417 24.44° C 74% 1013.4 hPa 0 mm - - -
1777233111 25° C 73% 1013.2 hPa 0 mm - - -
1777232807 23.89° C 76% 1013.3 hPa 0 mm - - -
1777232506 23.89° C 75% 1013.1 hPa 0 mm - - -
1777232204 24.44° C 76% 1013.2 hPa 0 mm - - -
1777231900 23.89° C 76% 1013.2 hPa 0 mm - - -
1777231597 23.89° C 78% 1013.3 hPa 0 mm - - -
1777231294 23.89° C 77% 1013.3 hPa 0 mm - - -
1777230989 23.89° C 78% 1013.2 hPa 0 mm - - -
1777230686 24.44° C 77% 1013.1 hPa 0 mm - - -
1777230381 26.11° C 74% 1013.1 hPa 0 mm - - -
1777230077 26.67° C 64% 1012.8 hPa 0 mm - - -
1777229775 27.22° C 63% 1012.8 hPa 0 mm - - -
1777229471 26.67° C 64% 1012.7 hPa 0 mm - - -
1777229168 26.11° C 65% 1012.9 hPa 0 mm - - -
1777228865 26.67° C 65% 1013.1 hPa 0 mm - - -
1777228561 27.78° C 62% 1012.8 hPa 0 mm - - -
1777228257 27.22° C 61% 1012.8 hPa 0 mm - - -

* Rain latest hour (hover to see other rain measurements)
** Current wind speed in m/s (hover to see current wind gust speed)